Astana, Kazakhstan
Current Conditions -  °F | °C
As of 8:00 AM on Tuesday 23 Dec 2014 (Local Time) from UACC Reporting Station
Scattered Clouds Scattered Clouds  
Wind Chill: 12°   Ceiling: Unl
Heat Index: 12°   Visibility: 6mi
Dew Point:   Wind: 2mph
Humidity: 85%   Direction: 170°S
Pressure: 30.12"   Gusts: NA
Location:  51.17°N, 71.5°E
Report Text: UACC 230200Z 17001MPS 9999 SCT011 M11/M13 Q1020 R22/3/0060NOSIG RMK QFE733/0978
Loading
Personal Weather Stations






























Interactive Weather Map New forecast layout! Learn more

10-Day Weather Forecast

Advertisements
Track Severe Weather on mobile